Time;durP1;ratioP1;P1;durP2;ratioP2;P2;SDS_P1;SDS_P2;PMS_P1;PMS_P2;Temp;Humidity;BMP_temperature;BMP_pressure;BME280_temperature;BME280_humidity;BME280_pressure;Samples;Min_cycle;Max_cycle;Signal;HPM_P1;HPM_P2
2021/01/16 00:00:13;;;;;;;10.47;9.47;;;;;21.40;101803.00;;;;2064340;28;20226;-61
2021/01/16 00:01:14;;;;;;;11.10;10.00;;;;;21.40;101802.00;;;;2071025;28;20276;-62
2021/01/16 00:02:14;;;;;;;11.63;10.40;;;;;21.40;101798.00;;;;2071184;28;20590;-62
2021/01/16 00:03:17;;;;;;;10.87;9.87;;;;;21.40;101801.00;;;;2071235;28;20712;-62
2021/01/16 00:04:18;;;;;;;11.48;10.38;;;;;21.30;101801.00;;;;2067563;28;20683;-62
2021/01/16 00:05:19;;;;;;;11.03;10.03;;;;;21.30;101801.00;;;;2065520;28;20221;-63
2021/01/16 00:06:28;;;;;;;10.60;9.50;;;;;21.30;101798.00;;;;2060893;28;20219;-62
2021/01/16 00:07:28;;;;;;;9.77;8.88;;;;;21.30;101799.00;;;;2067318;28;20705;-62
2021/01/16 00:08:29;;;;;;;9.93;9.03;;;;;21.30;101796.00;;;;2066761;28;20219;-62
2021/01/16 00:09:29;;;;;;;9.20;8.40;;;;;21.30;101802.00;;;;2067656;28;20207;-63
2021/01/16 00:10:30;;;;;;;10.60;9.60;;;;;21.30;101797.00;;;;2057337;28;20218;-62
2021/01/16 00:11:30;;;;;;;9.82;9.00;;;;;21.30;101800.00;;;;2075251;28;20217;-62
2021/01/16 00:12:31;;;;;;;10.37;9.37;;;;;21.20;101794.00;;;;2066540;28;20242;-62
2021/01/16 00:13:34;;;;;;;9.90;9.00;;;;;21.20;101803.00;;;;2070592;28;20874;-62
2021/01/16 00:14:34;;;;;;;10.40;9.40;;;;;21.30;101798.00;;;;2070717;28;20210;-62
2021/01/16 00:15:35;;;;;;;9.20;8.40;;;;;21.30;101798.00;;;;2071126;28;20249;-62
2021/01/16 00:16:35;;;;;;;9.80;8.90;;;;;21.20;101799.00;;;;2065686;28;20210;-62
2021/01/16 00:17:35;;;;;;;9.90;9.00;;;;;21.20;101798.00;;;;2068337;28;20211;-62
2021/01/16 00:18:36;;;;;;;9.73;8.73;;;;;21.20;101800.00;;;;2065501;28;20242;-62
2021/01/16 00:19:36;;;;;;;9.70;8.70;;;;;21.20;101799.00;;;;2068628;28;20218;-62
2021/01/16 00:20:38;;;;;;;9.40;8.50;;;;;21.10;101801.00;;;;2065656;28;20327;-62
2021/01/16 00:21:38;;;;;;;9.85;8.95;;;;;21.20;101800.00;;;;2068774;28;20321;-62
2021/01/16 00:22:48;;;;;;;8.73;7.93;;;;;21.10;101792.00;;;;2065213;28;21685;-62
2021/01/16 00:23:49;;;;;;;9.88;8.90;;;;;21.10;101791.00;;;;2069635;28;20219;-62
2021/01/16 00:24:49;;;;;;;9.43;8.53;;;;;21.10;101787.00;;;;2062358;28;20227;-62
2021/01/16 00:25:50;;;;;;;9.20;8.27;;;;;21.10;101792.00;;;;2069246;28;20669;-62
2021/01/16 00:26:50;;;;;;;9.43;8.53;;;;;21.10;101789.00;;;;2063501;28;20215;-64
2021/01/16 00:27:50;;;;;;;8.43;7.73;;;;;21.10;101791.00;;;;2069962;28;20588;-63
2021/01/16 00:28:51;;;;;;;8.60;7.80;;;;;21.10;101795.00;;;;2054977;28;20564;-62
2021/01/16 00:29:51;;;;;;;9.30;8.40;;;;;21.10;101795.00;;;;2061684;28;20215;-62
2021/01/16 00:30:51;;;;;;;9.53;8.07;;;;;21.10;101792.00;;;;2063392;28;20242;-62
2021/01/16 00:31:52;;;;;;;9.90;9.00;;;;;21.10;101802.00;;;;2070437;28;20210;-62
2021/01/16 00:32:52;;;;;;;9.73;8.80;;;;;21.10;101799.00;;;;2063395;28;20214;-62
2021/01/16 00:33:53;;;;;;;11.37;10.07;;;;;21.10;101795.00;;;;2054388;28;20207;-62
2021/01/16 00:34:53;;;;;;;9.70;8.80;;;;;21.00;101800.00;;;;2061511;28;20234;-62
2021/01/16 00:35:54;;;;;;;10.47;9.47;;;;;21.00;101795.00;;;;2062317;28;20211;-62
2021/01/16 00:36:55;;;;;;;9.70;8.75;;;;;21.00;101799.00;;;;2061585;28;20682;-62
2021/01/16 00:37:55;;;;;;;10.10;9.10;;;;;21.00;101795.00;;;;2062166;28;20211;-62
2021/01/16 00:38:55;;;;;;;9.00;8.13;;;;;21.00;101796.00;;;;2071126;28;20249;-62
2021/01/16 00:39:56;;;;;;;9.00;8.20;;;;;21.00;101793.00;;;;2064494;28;20219;-62
2021/01/16 00:40:56;;;;;;;9.60;8.60;;;;;21.00;101792.00;;;;2072491;28;20214;-62
2021/01/16 00:41:57;;;;;;;8.47;7.77;;;;;21.00;101790.00;;;;2065662;28;20681;-62
2021/01/16 00:43:03;;;;;;;9.20;8.30;;;;;21.00;101792.00;;;;2063945;28;20275;-62
2021/01/16 00:44:04;;;;;;;8.82;8.00;;;;;21.00;101787.00;;;;2077517;28;20206;-62
2021/01/16 00:45:05;;;;;;;9.10;8.20;;;;;20.90;101786.00;;;;2073767;28;20218;-62
2021/01/16 00:46:05;;;;;;;7.80;7.10;;;;;21.00;101791.00;;;;2070928;28;20619;-62
2021/01/16 00:47:05;;;;;;;9.33;8.43;;;;;20.90;101790.00;;;;2053005;28;20222;-62
2021/01/16 00:48:10;;;;;;;8.80;8.10;;;;;20.90;101797.00;;;;2055331;28;20257;-62
2021/01/16 00:49:10;;;;;;;8.43;7.63;;;;;20.90;101792.00;;;;2071608;28;20210;-62
2021/01/16 00:50:12;;;;;;;8.70;7.97;;;;;20.90;101793.00;;;;2066015;28;20242;-62
2021/01/16 00:51:12;;;;;;;7.30;6.70;;;;;20.90;101795.00;;;;2066585;28;20698;-62
2021/01/16 00:52:12;;;;;;;8.10;7.30;;;;;20.90;101792.00;;;;2072404;28;20249;-62
2021/01/16 00:53:13;;;;;;;8.20;7.40;;;;;20.90;101794.00;;;;2070140;28;20222;-62
2021/01/16 00:54:13;;;;;;;8.33;7.53;;;;;20.90;101789.00;;;;2066119;28;20262;-62
2021/01/16 00:55:13;;;;;;;8.20;7.50;;;;;20.90;101793.00;;;;2071508;28;20233;-62
2021/01/16 00:56:14;;;;;;;7.63;7.00;;;;;20.90;101787.00;;;;2070154;28;20219;-62
2021/01/16 00:57:14;;;;;;;8.37;7.67;;;;;20.90;101788.00;;;;2066488;28;20586;-62
2021/01/16 00:58:16;;;;;;;8.07;7.37;;;;;20.90;101789.00;;;;2069782;28;20738;-62
2021/01/16 00:59:16;;;;;;;8.60;7.80;;;;;20.90;101784.00;;;;2067015;28;20238;-62
2021/01/16 01:00:17;;;;;;;9.77;7.33;;;;;20.90;101782.00;;;;2069664;28;20254;-62
2021/01/16 01:01:17;;;;;;;7.72;7.07;;;;;20.90;101781.00;;;;2065884;28;20305;-61
2021/01/16 01:02:18;;;;;;;7.70;7.00;;;;;20.90;101781.00;;;;2076021;28;20218;-61
2021/01/16 01:03:22;;;;;;;7.53;6.93;;;;;20.80;101786.00;;;;2079605;28;20214;-62
2021/01/16 01:04:22;;;;;;;7.47;6.78;;;;;20.80;101779.00;;;;2063191;28;20233;-62
2021/01/16 01:05:23;;;;;;;7.90;7.30;;;;;20.90;101785.00;;;;2051544;28;20283;-62
2021/01/16 01:06:23;;;;;;;7.63;7.00;;;;;20.80;101777.00;;;;2067878;28;20230;-62
2021/01/16 01:07:23;;;;;;;7.93;7.23;;;;;20.80;101780.00;;;;2067718;28;20290;-62
2021/01/16 01:08:29;;;;;;;9.10;6.93;;;;;20.80;101782.00;;;;2067297;28;20238;-62
2021/01/16 01:09:30;;;;;;;7.35;6.75;;;;;20.80;101783.00;;;;2075034;28;20211;-62
2021/01/16 01:10:33;;;;;;;7.90;7.30;;;;;20.60;101786.00;;;;2076125;28;20796;-62
2021/01/16 01:11:33;;;;;;;7.45;6.85;;;;;20.70;101780.00;;;;2064847;28;20215;-62
2021/01/16 01:12:33;;;;;;;7.70;6.90;;;;;20.80;101784.00;;;;2068692;28;20302;-62
2021/01/16 01:13:34;;;;;;;7.33;6.63;;;;;20.80;101776.00;;;;2056325;28;20219;-62
2021/01/16 01:14:34;;;;;;;6.90;6.40;;;;;20.80;101773.00;;;;2067775;28;20244;-62
2021/01/16 01:15:36;;;;;;;6.60;6.00;;;;;20.80;101776.00;;;;2069308;28;20231;-62
2021/01/16 01:16:36;;;;;;;7.63;7.00;;;;;20.80;101774.00;;;;2068256;28;20271;-62
2021/01/16 01:17:36;;;;;;;7.10;6.50;;;;;20.80;101778.00;;;;2065857;28;20702;-62
2021/01/16 01:18:36;;;;;;;7.97;7.20;;;;;20.70;101774.00;;;;2069072;28;20708;-62
2021/01/16 01:19:37;;;;;;;7.40;6.80;;;;;20.70;101775.00;;;;2071512;28;20320;-62
2021/01/16 01:20:37;;;;;;;6.90;6.30;;;;;20.70;101775.00;;;;2066319;28;20219;-62
2021/01/16 01:21:37;;;;;;;7.27;6.60;;;;;20.70;101781.00;;;;2068918;28;20214;-62
2021/01/16 01:22:38;;;;;;;7.07;6.47;;;;;20.70;101777.00;;;;2066476;28;20330;-62
2021/01/16 01:23:38;;;;;;;6.80;6.30;;;;;20.70;101783.00;;;;2055435;28;20207;-62
2021/01/16 01:24:39;;;;;;;7.03;6.43;;;;;20.70;101772.00;;;;2060563;28;20227;-62
2021/01/16 01:25:39;;;;;;;7.27;6.67;;;;;20.70;101777.00;;;;2063901;28;20606;-62
2021/01/16 01:26:39;;;;;;;7.20;6.60;;;;;20.60;101773.00;;;;2069806;28;20573;-62
2021/01/16 01:27:40;;;;;;;7.10;6.43;;;;;20.60;101776.00;;;;2065533;28;20707;-62
2021/01/16 01:28:40;;;;;;;6.70;6.10;;;;;20.60;101764.00;;;;2055535;28;20287;-62
2021/01/16 01:29:40;;;;;;;6.70;6.10;;;;;20.60;101773.00;;;;2069413;28;20728;-62
2021/01/16 01:30:41;;;;;;;7.40;6.73;;;;;20.60;101778.00;;;;2066144;28;20689;-62
2021/01/16 01:31:41;;;;;;;7.00;6.40;;;;;20.60;101773.00;;;;2069867;28;20930;-62
2021/01/16 01:32:42;;;;;;;7.10;6.40;;;;;20.60;101777.00;;;;2072214;28;20215;-66
2021/01/16 01:33:42;;;;;;;6.60;6.00;;;;;20.60;101769.00;;;;2072426;28;20293;-65
2021/01/16 01:34:42;;;;;;;7.70;7.00;;;;;20.60;101763.00;;;;2072326;28;20254;-66
2021/01/16 01:35:43;;;;;;;6.90;6.33;;;;;20.60;101773.00;;;;2070999;28;20297;-66
2021/01/16 01:36:44;;;;;;;6.97;6.37;;;;;20.60;101780.00;;;;2065401;28;20211;-66
2021/01/16 01:37:51;;;;;;;7.10;6.50;;;;;20.60;101766.00;;;;2069898;28;20533;-66
2021/01/16 01:38:52;;;;;;;6.47;5.95;;;;;20.60;101774.00;;;;2064781;28;20223;-62
2021/01/16 01:39:52;;;;;;;7.00;6.40;;;;;20.60;101767.00;;;;2071320;28;20589;-62
2021/01/16 01:40:53;;;;;;;7.30;6.67;;;;;20.60;101761.00;;;;2064583;28;20749;-62
2021/01/16 01:41:53;;;;;;;6.90;6.30;;;;;20.60;101768.00;;;;2055129;28;20586;-65
2021/01/16 01:42:54;;;;;;;6.77;6.10;;;;;20.60;101776.00;;;;2055855;28;20263;-65
2021/01/16 01:43:55;;;;;;;7.35;6.13;;;;;20.60;101765.00;;;;2071769;28;20238;-65
2021/01/16 01:44:55;;;;;;;6.67;6.07;;;;;20.60;101763.00;;;;2072128;28;20689;-65
2021/01/16 01:45:55;;;;;;;6.57;5.97;;;;;20.50;101758.00;;;;2064498;28;20728;-68
2021/01/16 01:46:56;;;;;;;7.03;6.33;;;;;20.50;101752.00;;;;2072045;28;20752;-66
2021/01/16 01:47:56;;;;;;;6.60;5.97;;;;;20.50;101763.00;;;;2071980;28;20630;-66
2021/01/16 01:48:56;;;;;;;6.83;6.20;;;;;20.50;101763.00;;;;2055543;28;20215;-66
2021/01/16 01:49:57;;;;;;;6.90;6.30;;;;;20.50;101764.00;;;;2062917;28;20269;-66
2021/01/16 01:50:59;;;;;;;6.33;5.73;;;;;20.50;101760.00;;;;2071524;28;20266;-65
2021/01/16 01:52:00;;;;;;;6.80;6.10;;;;;20.50;101762.00;;;;2071560;28;20712;-65
2021/01/16 01:53:00;;;;;;;7.33;6.00;;;;;20.50;101760.00;;;;2063412;28;20218;-65
2021/01/16 01:54:01;;;;;;;7.13;6.13;;;;;20.50;101756.00;;;;2055477;28;20212;-65
2021/01/16 01:55:03;;;;;;;6.83;6.13;;;;;20.50;101764.00;;;;2063826;28;20215;-65
2021/01/16 01:56:03;;;;;;;7.10;6.40;;;;;20.50;101759.00;;;;2064941;28;20241;-65
2021/01/16 01:57:05;;;;;;;6.10;5.57;;;;;20.50;101764.00;;;;2071591;28;20225;-66
2021/01/16 01:58:06;;;;;;;7.18;6.57;;;;;20.50;101759.00;;;;2062351;28;20222;-65
2021/01/16 01:59:06;;;;;;;6.60;6.00;;;;;20.50;101754.00;;;;2056511;28;20243;-66
2021/01/16 02:00:07;;;;;;;7.03;6.37;;;;;20.40;101759.00;;;;2057091;28;20459;-65
2021/01/16 02:01:08;;;;;;;6.50;5.90;;;;;20.40;101756.00;;;;2057242;28;20224;-65
2021/01/16 02:02:08;;;;;;;6.27;5.77;;;;;20.50;101753.00;;;;2070009;28;20453;-61
2021/01/16 02:03:10;;;;;;;6.97;6.27;;;;;20.40;101752.00;;;;2071145;28;20228;-62
2021/01/16 02:04:10;;;;;;;7.13;6.43;;;;;20.50;101750.00;;;;2075870;28;20260;-62
2021/01/16 02:05:11;;;;;;;6.83;6.23;;;;;20.50;101752.00;;;;2060931;28;20725;-62
2021/01/16 02:06:12;;;;;;;7.30;6.67;;;;;20.40;101747.00;;;;2057348;28;20796;-65
2021/01/16 02:07:28;;;;;;;6.70;6.10;;;;;20.40;101753.00;;;;2071707;28;20495;-65
2021/01/16 02:08:28;;;;;;;6.70;6.00;;;;;20.40;101756.00;;;;2068033;28;20233;-65
2021/01/16 02:09:29;;;;;;;6.73;6.17;;;;;20.40;101753.00;;;;2064167;28;20712;-64
2021/01/16 02:10:29;;;;;;;6.60;6.00;;;;;20.40;101749.00;;;;2068500;28;20708;-65
2021/01/16 02:11:30;;;;;;;6.67;6.07;;;;;20.40;101745.00;;;;2072254;28;20701;-65
2021/01/16 02:12:31;;;;;;;6.95;6.35;;;;;20.40;101753.00;;;;2058802;28;20231;-65
2021/01/16 02:13:31;;;;;;;6.53;5.93;;;;;20.40;101751.00;;;;2059599;28;20641;-65
2021/01/16 02:14:32;;;;;;;6.33;5.83;;;;;20.40;101754.00;;;;2066430;28;20433;-65
2021/01/16 02:15:38;;;;;;;6.43;5.63;;;;;20.40;101751.00;;;;2068188;28;20237;-64
2021/01/16 02:16:46;;;;;;;6.30;5.75;;;;;20.40;101752.00;;;;2066053;28;20261;-65
2021/01/16 02:17:49;;;;;;;6.32;5.68;;;;;20.40;101753.00;;;;2069823;28;20288;-65
2021/01/16 02:18:50;;;;;;;6.85;6.22;;;;;20.40;101733.00;;;;2063743;28;20211;-65
2021/01/16 02:20:09;;;;;;;6.57;5.97;;;;;20.40;101747.00;;;;2055478;28;20222;-65
2021/01/16 02:21:09;;;;;;;7.20;6.50;;;;;20.40;101741.00;;;;2064081;28;20992;-66
2021/01/16 02:22:10;;;;;;;6.27;5.70;;;;;20.30;101740.00;;;;2055364;28;20222;-65
2021/01/16 02:23:58;;;;;;;5.93;5.43;;;;;20.30;101742.00;;;;2055446;28;20598;-65
2021/01/16 02:25:12;;;;;;;5.95;5.45;;;;;20.30;101744.00;;;;2058394;28;20720;-65
2021/01/16 02:26:15;;;;;;;6.18;5.68;;;;;20.30;101740.00;;;;2071122;28;20226;-64
2021/01/16 02:27:23;;;;;;;6.00;5.50;;;;;20.30;101747.00;;;;2071566;28;20214;-65
2021/01/16 02:28:24;;;;;;;6.35;5.78;;;;;20.30;101739.00;;;;2068030;28;20602;-65
2021/01/16 02:29:24;;;;;;;6.43;5.82;;;;;20.30;101741.00;;;;2063488;28;20279;-65
2021/01/16 02:30:25;;;;;;;6.73;6.13;;;;;20.30;101739.00;;;;2067055;28;20256;-65
2021/01/16 02:31:54;;;;;;;6.97;6.27;;;;;20.30;101744.00;;;;2068856;28;20277;-65
2021/01/16 02:32:54;;;;;;;6.50;6.00;;;;;20.30;101733.00;;;;2063106;28;20229;-65
2021/01/16 02:33:55;;;;;;;5.50;5.00;;;;;20.30;101733.00;;;;2055879;28;20219;-65
2021/01/16 02:34:55;;;;;;;6.77;6.17;;;;;20.30;101730.00;;;;2062892;28;20215;-66
2021/01/16 02:36:19;;;;;;;5.97;5.47;;;;;20.30;101736.00;;;;2063310;28;20241;-65
2021/01/16 02:37:48;;;;;;;6.63;6.03;;;;;20.20;101737.00;;;;2066271;28;20308;-65
2021/01/16 02:39:26;;;;;;;6.43;5.93;;;;;20.20;101734.00;;;;2064621;28;20217;-65
2021/01/16 02:40:28;;;;;;;6.80;6.20;;;;;20.20;101733.00;;;;2046440;28;20248;-66
2021/01/16 02:41:35;;;;;;;6.38;5.85;;;;;20.30;101729.00;;;;2059516;28;20229;-65
2021/01/16 02:42:47;;;;;;;5.75;5.25;;;;;20.20;101728.00;;;;2058367;28;20678;-65
2021/01/16 02:43:53;;;;;;;5.55;5.05;;;;;20.20;101720.00;;;;2056560;28;20704;-65
2021/01/16 02:45:02;;;;;;;6.38;5.88;;;;;20.20;101724.00;;;;2063715;28;20226;-65
2021/01/16 02:46:27;;;;;;;6.75;6.15;;;;;20.20;101727.00;;;;2064024;28;20213;-65
2021/01/16 02:47:48;;;;;;;6.10;5.50;;;;;20.20;101721.00;;;;2054833;28;20222;-65
2021/01/16 02:48:55;;;;;;;7.88;6.25;;;;;20.20;101721.00;;;;2061010;28;20214;-66
2021/01/16 02:49:59;;;;;;;6.05;5.55;;;;;20.20;101719.00;;;;2063162;28;20226;-65
2021/01/16 02:50:59;;;;;;;6.13;5.63;;;;;20.20;101724.00;;;;2063540;28;20218;-65
2021/01/16 02:52:05;;;;;;;6.07;5.43;;;;;20.20;101721.00;;;;2070668;28;20778;-65
2021/01/16 02:53:05;;;;;;;6.60;6.00;;;;;20.20;101726.00;;;;2064220;28;20222;-65
2021/01/16 02:54:06;;;;;;;6.20;5.70;;;;;20.20;101717.00;;;;2054116;28;20214;-64
2021/01/16 02:55:08;;;;;;;6.35;5.75;;;;;20.20;101725.00;;;;2053527;28;20217;-65
2021/01/16 02:56:12;;;;;;;6.75;6.15;;;;;20.20;101725.00;;;;2063276;28;20221;-65
2021/01/16 02:57:13;;;;;;;6.00;5.50;;;;;20.20;101712.00;;;;2062940;28;20223;-65
2021/01/16 02:58:14;;;;;;;6.13;5.63;;;;;20.20;101713.00;;;;2055018;28;20245;-65
2021/01/16 02:59:15;;;;;;;6.47;5.97;;;;;20.20;101708.00;;;;2065627;28;20223;-65
2021/01/16 03:00:20;;;;;;;6.20;5.60;;;;;20.20;101711.00;;;;2069323;28;20214;-65
2021/01/16 03:01:20;;;;;;;6.10;5.50;;;;;20.20;101711.00;;;;2066682;28;20222;-61
2021/01/16 03:02:21;;;;;;;6.30;5.70;;;;;20.20;101718.00;;;;2070923;28;20301;-65
2021/01/16 03:03:21;;;;;;;6.30;5.70;;;;;20.20;101710.00;;;;2071889;28;20222;-65
2021/01/16 03:04:21;;;;;;;6.17;5.60;;;;;20.20;101708.00;;;;2071569;28;20212;-65
2021/01/16 03:05:22;;;;;;;5.90;5.30;;;;;20.20;101716.00;;;;2068007;28;20246;-65
2021/01/16 03:06:22;;;;;;;6.13;5.63;;;;;20.20;101717.00;;;;2067198;28;20212;-65
2021/01/16 03:07:23;;;;;;;6.57;5.93;;;;;20.20;101713.00;;;;2068414;28;20219;-65
2021/01/16 03:08:23;;;;;;;6.50;5.97;;;;;20.10;101705.00;;;;2066495;28;20697;-65
2021/01/16 03:09:23;;;;;;;6.17;5.67;;;;;20.10;101708.00;;;;2059591;28;20214;-65
2021/01/16 03:10:24;;;;;;;7.00;6.30;;;;;20.10;101706.00;;;;2058493;28;20218;-65
2021/01/16 03:11:24;;;;;;;6.00;5.50;;;;;20.10;101715.00;;;;2071180;28;20214;-65
2021/01/16 03:12:25;;;;;;;6.50;6.00;;;;;20.10;101711.00;;;;2071703;28;20271;-65
2021/01/16 03:13:25;;;;;;;5.90;5.40;;;;;20.10;101711.00;;;;2067909;28;20643;-65
2021/01/16 03:14:28;;;;;;;6.00;5.50;;;;;20.10;101702.00;;;;2066750;28;20616;-65
2021/01/16 03:15:29;;;;;;;6.88;6.28;;;;;20.10;101710.00;;;;2071141;28;20222;-65
2021/01/16 03:16:29;;;;;;;6.03;5.50;;;;;20.10;101706.00;;;;2071649;28;20228;-65
2021/01/16 03:17:41;;;;;;;6.07;5.47;;;;;20.00;101709.00;;;;2070926;28;20213;-65
2021/01/16 03:18:42;;;;;;;5.85;5.35;;;;;20.10;101704.00;;;;2070832;28;20308;-65
2021/01/16 03:19:46;;;;;;;6.63;6.03;;;;;20.10;101709.00;;;;2065413;28;20230;-65
2021/01/16 03:20:46;;;;;;;5.60;5.10;;;;;20.10;101711.00;;;;2063725;28;20527;-65
2021/01/16 03:21:47;;;;;;;6.03;5.53;;;;;20.10;101713.00;;;;2062933;28;20222;-66
2021/01/16 03:22:49;;;;;;;6.43;5.87;;;;;20.10;101711.00;;;;2069639;28;20210;-67
2021/01/16 03:23:50;;;;;;;5.57;5.15;;;;;20.10;101710.00;;;;2063761;28;20225;-62
2021/01/16 03:24:54;;;;;;;6.70;6.10;;;;;20.10;101703.00;;;;2069100;28;20656;-60
2021/01/16 03:25:54;;;;;;;6.75;6.15;;;;;20.00;101703.00;;;;2063614;28;20292;-61
2021/01/16 03:26:54;;;;;;;5.80;5.30;;;;;20.10;101711.00;;;;2070962;28;20211;-61
2021/01/16 03:27:55;;;;;;;6.10;5.60;;;;;20.00;101713.00;;;;2063476;28;20264;-62
2021/01/16 03:28:55;;;;;;;5.53;5.03;;;;;20.00;101713.00;;;;2070432;28;20213;-62
2021/01/16 03:29:55;;;;;;;6.23;5.70;;;;;20.00;101716.00;;;;2062686;28;20216;-62
2021/01/16 03:30:56;;;;;;;6.70;6.10;;;;;20.00;101714.00;;;;2068807;28;20238;-61
2021/01/16 03:31:56;;;;;;;6.43;5.93;;;;;20.00;101713.00;;;;2067226;28;20270;-61
2021/01/16 03:32:56;;;;;;;6.20;5.70;;;;;20.00;101717.00;;;;2070769;28;20235;-62
2021/01/16 03:33:57;;;;;;;5.70;5.20;;;;;20.00;101711.00;;;;2067232;28;20220;-62
2021/01/16 03:34:57;;;;;;;6.60;6.10;;;;;20.00;101716.00;;;;2069213;28;20241;-62
2021/01/16 03:35:57;;;;;;;5.73;5.23;;;;;20.00;101720.00;;;;2062152;28;20217;-61
2021/01/16 03:36:58;;;;;;;6.10;5.60;;;;;20.00;101715.00;;;;2069759;28;20210;-62
2021/01/16 03:37:59;;;;;;;6.00;5.50;;;;;20.00;101707.00;;;;2062398;28;20217;-62
2021/01/16 03:38:59;;;;;;;6.00;5.50;;;;;20.00;101719.00;;;;2067220;28;20845;-62
2021/01/16 03:39:59;;;;;;;7.40;6.80;;;;;20.00;101712.00;;;;2062873;28;20221;-62
2021/01/16 03:40:59;;;;;;;6.47;5.87;;;;;20.00;101717.00;;;;2070572;28;20213;-61
2021/01/16 03:42:00;;;;;;;6.33;5.83;;;;;20.00;101726.00;;;;2063020;28;20437;-61
2021/01/16 03:43:00;;;;;;;6.53;5.93;;;;;20.00;101709.00;;;;2070421;28;20226;-62
2021/01/16 03:44:01;;;;;;;6.00;5.50;;;;;20.00;101720.00;;;;2063076;28;20708;-62
2021/01/16 03:45:05;;;;;;;6.50;6.00;;;;;20.00;101718.00;;;;2068240;28;20233;-61
2021/01/16 03:46:06;;;;;;;5.80;5.30;;;;;20.00;101662.00;;;;2063760;28;20349;-62
2021/01/16 03:47:07;;;;;;;6.72;6.22;;;;;20.00;101715.00;;;;2069072;28;20215;-61
2021/01/16 03:48:07;;;;;;;6.10;5.60;;;;;20.00;101713.00;;;;2063176;28;20222;-62
2021/01/16 03:49:07;;;;;;;6.50;5.90;;;;;20.00;101705.00;;;;2068659;28;20229;-62
2021/01/16 03:50:08;;;;;;;5.60;5.10;;;;;20.00;101713.00;;;;2069932;28;20263;-65
2021/01/16 03:51:09;;;;;;;6.23;5.73;;;;;20.00;101710.00;;;;2071458;28;20616;-65
2021/01/16 03:52:09;;;;;;;6.30;5.80;;;;;19.90;101700.00;;;;2062507;28;20229;-66
2021/01/16 03:53:09;;;;;;;6.03;5.43;;;;;19.90;101695.00;;;;2064246;28;20222;-66
2021/01/16 03:54:10;;;;;;;6.33;5.73;;;;;19.90;101701.00;;;;2068239;28;20236;-66
2021/01/16 03:55:10;;;;;;;5.77;5.27;;;;;19.90;101698.00;;;;2062935;28;20224;-66
2021/01/16 03:56:11;;;;;;;5.97;5.47;;;;;19.90;101700.00;;;;2067981;28;20239;-65
2021/01/16 03:57:11;;;;;;;6.40;5.90;;;;;19.90;101702.00;;;;2063747;28;20217;-66
2021/01/16 03:58:11;;;;;;;6.50;5.90;;;;;19.90;101700.00;;;;2068817;28;20600;-65
2021/01/16 03:59:11;;;;;;;6.60;5.73;;;;;19.90;101704.00;;;;2065151;28;21009;-65
2021/01/16 04:00:12;;;;;;;6.70;6.10;;;;;19.90;101699.00;;;;2068198;28;20854;-66
2021/01/16 04:01:12;;;;;;;6.63;6.03;;;;;19.90;101701.00;;;;2064370;28;20726;-66
2021/01/16 04:02:13;;;;;;;5.93;5.43;;;;;19.90;101688.00;;;;2069972;28;21929;-65
2021/01/16 04:03:13;;;;;;;6.47;5.90;;;;;19.90;101695.00;;;;2070973;28;20212;-65
2021/01/16 04:04:14;;;;;;;6.53;5.93;;;;;19.90;101690.00;;;;2070979;28;20246;-65
2021/01/16 04:05:14;;;;;;;6.10;5.60;;;;;19.90;101696.00;;;;2067880;28;20226;-65
2021/01/16 04:06:15;;;;;;;6.33;5.73;;;;;19.90;101697.00;;;;2065178;28;20771;-65
2021/01/16 04:07:16;;;;;;;6.32;5.72;;;;;19.90;101701.00;;;;2068475;28;20236;-65
2021/01/16 04:08:16;;;;;;;6.03;5.53;;;;;19.90;101697.00;;;;2065579;28;20596;-65
2021/01/16 04:09:17;;;;;;;6.53;5.93;;;;;19.90;101685.00;;;;2068552;28;20221;-65
2021/01/16 04:10:17;;;;;;;6.10;5.60;;;;;19.90;101694.00;;;;2065826;28;20233;-65
2021/01/16 04:11:17;;;;;;;6.20;5.70;;;;;19.90;101690.00;;;;2071511;28;20239;-65
2021/01/16 04:12:18;;;;;;;6.50;5.90;;;;;19.90;101689.00;;;;2071360;28;20222;-65
2021/01/16 04:13:18;;;;;;;6.30;5.80;;;;;19.90;101681.00;;;;2072231;28;20244;-65
2021/01/16 04:14:18;;;;;;;6.20;5.60;;;;;19.90;101686.00;;;;2070100;28;20215;-65
2021/01/16 04:15:18;;;;;;;5.63;5.13;;;;;19.90;101678.00;;;;2067292;28;20238;-65
2021/01/16 04:16:19;;;;;;;5.83;5.33;;;;;19.90;101676.00;;;;2069428;28;20217;-65
2021/01/16 04:17:19;;;;;;;5.97;5.47;;;;;19.80;101677.00;;;;2066527;28;20263;-65
2021/01/16 04:18:19;;;;;;;6.00;5.50;;;;;19.80;101676.00;;;;2068788;28;20224;-65
2021/01/16 04:19:20;;;;;;;5.83;5.33;;;;;19.80;101682.00;;;;2067719;28;20250;-65
2021/01/16 04:20:20;;;;;;;5.70;5.20;;;;;19.90;101673.00;;;;2069270;28;20219;-65
2021/01/16 04:21:21;;;;;;;6.03;5.53;;;;;19.80;101679.00;;;;2064417;28;20208;-65
2021/01/16 04:22:21;;;;;;;5.53;5.13;;;;;19.80;101669.00;;;;2067655;28;20702;-65
2021/01/16 04:23:22;;;;;;;6.23;5.73;;;;;19.90;101674.00;;;;2072596;28;20638;-65
2021/01/16 04:24:22;;;;;;;6.33;5.73;;;;;19.90;101676.00;;;;2072133;28;20726;-65
2021/01/16 04:25:22;;;;;;;5.50;5.00;;;;;19.80;101670.00;;;;2071902;28;20689;-65
2021/01/16 04:26:23;;;;;;;6.77;6.20;;;;;19.80;101656.00;;;;2072944;28;20282;-65
2021/01/16 04:27:23;;;;;;;6.03;5.53;;;;;19.80;101665.00;;;;2064020;28;20747;-65
2021/01/16 04:28:23;;;;;;;5.87;5.37;;;;;19.80;101665.00;;;;2060519;28;20690;-65
2021/01/16 04:29:24;;;;;;;5.53;5.03;;;;;19.80;101655.00;;;;2064746;28;20719;-65
2021/01/16 04:30:24;;;;;;;5.20;4.80;;;;;19.80;101659.00;;;;2064591;28;20270;-65
2021/01/16 04:31:24;;;;;;;6.20;5.60;;;;;19.80;101658.00;;;;2068503;28;20221;-65
2021/01/16 04:32:25;;;;;;;5.53;5.03;;;;;19.80;101649.00;;;;2072665;28;20941;-65
2021/01/16 04:33:25;;;;;;;5.70;5.20;;;;;19.80;101646.00;;;;2072692;28;20759;-65
2021/01/16 04:34:25;;;;;;;5.97;5.47;;;;;19.80;101653.00;;;;2072840;28;20222;-65
2021/01/16 04:35:26;;;;;;;6.00;5.50;;;;;19.80;101655.00;;;;2072255;28;20224;-65
2021/01/16 04:36:26;;;;;;;5.87;5.37;;;;;19.80;101656.00;;;;2072737;28;20221;-65
2021/01/16 04:37:26;;;;;;;5.37;4.97;;;;;19.80;101659.00;;;;2072580;28;20217;-65
2021/01/16 04:38:27;;;;;;;5.70;5.20;;;;;19.80;101657.00;;;;2068760;28;20228;-65
2021/01/16 04:39:27;;;;;;;7.03;5.73;;;;;19.80;101657.00;;;;2068495;28;20230;-65
2021/01/16 04:40:28;;;;;;;6.10;5.60;;;;;19.80;101653.00;;;;2072710;28;20231;-65
2021/01/16 04:41:29;;;;;;;5.63;5.13;;;;;19.80;101656.00;;;;2068532;28;20222;-65
2021/01/16 04:42:29;;;;;;;5.22;4.80;;;;;19.80;101646.00;;;;2055847;28;20306;-65
2021/01/16 04:43:30;;;;;;;5.40;4.90;;;;;19.70;101650.00;;;;2047583;28;20784;-65
2021/01/16 04:44:34;;;;;;;6.67;6.03;;;;;19.70;101656.00;;;;2063607;28;20238;-65
2021/01/16 04:45:34;;;;;;;6.00;5.40;;;;;19.80;101647.00;;;;2069351;28;20299;-65
2021/01/16 04:46:34;;;;;;;5.40;5.00;;;;;19.80;101648.00;;;;2067567;28;20644;-65
2021/01/16 04:47:35;;;;;;;6.07;5.57;;;;;19.70;101644.00;;;;2055521;28;20221;-65
2021/01/16 04:48:36;;;;;;;5.40;4.80;;;;;19.80;101650.00;;;;2047911;28;20224;-65
2021/01/16 04:49:36;;;;;;;5.63;5.13;;;;;19.80;101645.00;;;;2069162;28;20716;-65
2021/01/16 04:50:38;;;;;;;5.40;5.00;;;;;19.80;101643.00;;;;2055736;28;20227;-66
2021/01/16 04:51:43;;;;;;;6.43;5.63;;;;;19.80;101645.00;;;;2050497;28;20223;-65
2021/01/16 04:52:45;;;;;;;5.60;5.20;;;;;19.70;101635.00;;;;2070916;28;20240;-65
2021/01/16 04:53:46;;;;;;;5.65;5.20;;;;;19.70;101644.00;;;;2063997;28;20613;-65
2021/01/16 04:54:46;;;;;;;5.25;4.75;;;;;19.70;101636.00;;;;2061327;28;20296;-65
2021/01/16 04:55:47;;;;;;;5.33;4.83;;;;;19.70;101642.00;;;;2071901;28;20212;-65
2021/01/16 04:56:47;;;;;;;6.07;5.53;;;;;19.70;101636.00;;;;2064036;28;20285;-65
2021/01/16 04:57:47;;;;;;;6.37;5.77;;;;;19.70;101631.00;;;;2072053;28;20290;-65
2021/01/16 04:58:48;;;;;;;5.50;5.00;;;;;19.70;101647.00;;;;2049045;28;20219;-65
2021/01/16 04:59:48;;;;;;;5.40;5.00;;;;;19.70;101644.00;;;;2047763;28;20215;-65
2021/01/16 05:00:48;;;;;;;5.83;5.33;;;;;19.70;101635.00;;;;2063905;28;20237;-65
2021/01/16 05:01:49;;;;;;;6.30;5.70;;;;;19.70;101642.00;;;;2067881;28;20234;-65
2021/01/16 05:02:49;;;;;;;5.80;5.30;;;;;19.70;101640.00;;;;2063564;28;20670;-65
2021/01/16 05:03:50;;;;;;;5.73;5.23;;;;;19.70;101643.00;;;;2062918;28;20234;-65
2021/01/16 05:04:51;;;;;;;5.27;4.77;;;;;19.70;101630.00;;;;2071222;28;20280;-66
2021/01/16 05:05:51;;;;;;;6.07;5.57;;;;;19.70;101638.00;;;;2065020;28;20238;-65